createdAt,value
2023-02-16T00:02:03.613Z,1.40
2023-02-16T00:07:05.375Z,1.40
2023-02-16T00:12:19.018Z,1.40
2023-02-16T00:17:22.185Z,1.40
2023-02-16T00:22:24.040Z,1.40
2023-02-16T00:27:26.195Z,1.30
2023-02-16T00:32:29.367Z,1.30
2023-02-16T00:37:31.133Z,1.30
2023-02-16T00:42:33.926Z,1.20
2023-02-16T00:47:39.118Z,1.20
2023-02-16T00:52:41.345Z,1.20
2023-02-16T00:57:46.713Z,1.20
2023-02-16T01:02:51.884Z,1.30
2023-02-16T01:07:53.628Z,1.20
2023-02-16T01:12:55.483Z,1.20
2023-02-16T01:17:58.610Z,1.30
2023-02-16T01:23:00.309Z,1.20
2023-02-16T01:28:02.262Z,1.20
2023-02-16T01:33:05.346Z,1.20
2023-02-16T01:38:07.092Z,1.20
2023-02-16T01:43:18.608Z,1.20
2023-02-16T01:48:26.873Z,1.30
2023-02-16T01:53:33.235Z,1.20
2023-02-16T01:58:40.046Z,1.10
2023-02-16T02:03:44.046Z,1.10
2023-02-16T02:08:53.925Z,1.10
2023-02-16T02:14:01.299Z,1.20
2023-02-16T02:19:04.557Z,1.30
2023-02-16T02:24:33.216Z,1.30
2023-02-16T02:29:56.429Z,1.20
2023-02-16T02:35:13.212Z,1.20
2023-02-16T02:40:22.790Z,1.20
2023-02-16T02:45:30.313Z,1.20
2023-02-16T02:50:39.018Z,1.20
2023-02-16T02:55:44.793Z,1.10
2023-02-16T03:00:50.859Z,1.10
2023-02-16T03:05:57.001Z,1.00
2023-02-16T03:11:03.044Z,1.00
2023-02-16T03:16:12.032Z,1.10
2023-02-16T03:21:15.387Z,1.00
2023-02-16T03:26:18.900Z,0.90
2023-02-16T03:31:24.219Z,1.00
2023-02-16T03:36:29.046Z,1.00
2023-02-16T03:41:31.993Z,1.00
2023-02-16T03:46:35.357Z,1.00
2023-02-16T03:51:37.366Z,1.10
2023-02-16T03:56:39.093Z,1.00
2023-02-16T04:01:42.266Z,1.00
2023-02-16T04:06:44.002Z,0.80
2023-02-16T04:11:48.771Z,0.80
2023-02-16T04:16:51.975Z,0.80
2023-02-16T04:21:53.742Z,0.70
2023-02-16T04:26:55.582Z,0.70
2023-02-16T04:31:58.819Z,0.70
2023-02-16T04:37:00.758Z,0.70
2023-02-16T04:42:02.754Z,0.70
2023-02-16T04:47:05.998Z,0.70
2023-02-16T04:52:08.237Z,0.60
2023-02-16T04:57:20.660Z,0.60
2023-02-16T05:02:27.102Z,0.50
2023-02-16T05:07:38.144Z,0.50
2023-02-16T05:12:39.932Z,0.40
2023-02-16T05:17:43.016Z,0.40
2023-02-16T05:22:44.806Z,0.40
2023-02-16T05:27:46.554Z,0.30
2023-02-16T05:32:49.638Z,0.40
2023-02-16T05:37:51.326Z,0.20
2023-02-16T05:42:53.560Z,0.20
2023-02-16T05:47:56.701Z,0.00
2023-02-16T05:52:58.339Z,0.00
2023-02-16T05:58:00.142Z,0.00
2023-02-16T06:03:03.339Z,0.00
2023-02-16T06:08:05.248Z,0.00
2023-02-16T06:13:07.082Z,-0.10
2023-02-16T06:18:10.458Z,-0.20
2023-02-16T06:23:13.470Z,-0.30
2023-02-16T06:28:15.248Z,-0.30
2023-02-16T06:33:18.326Z,-0.50
2023-02-16T06:38:21.092Z,-0.60
2023-02-16T06:43:22.866Z,-0.70
2023-02-16T06:48:26.278Z,-0.70
2023-02-16T06:53:27.925Z,-0.70
2023-02-16T06:58:29.606Z,-0.70
2023-02-16T07:03:32.824Z,-0.60
2023-02-16T07:08:35.847Z,-0.60
2023-02-16T07:13:37.726Z,-0.60
2023-02-16T07:18:40.882Z,-0.70
2023-02-16T07:23:42.755Z,-0.70
2023-02-16T07:28:44.505Z,-0.70
2023-02-16T07:33:47.649Z,-0.70
2023-02-16T07:38:49.401Z,-0.60
2023-02-16T07:43:51.122Z,-0.50
2023-02-16T07:48:54.188Z,-0.50
2023-02-16T07:53:56.085Z,-0.50
2023-02-16T07:58:59.969Z,-0.40
2023-02-16T08:04:03.159Z,-0.40
2023-02-16T08:09:04.965Z,-0.20
2023-02-16T08:14:06.915Z,-0.20
2023-02-16T08:19:09.992Z,-0.30
2023-02-16T08:24:12.813Z,-0.30
2023-02-16T08:29:14.483Z,-0.30
2023-02-16T08:34:19.467Z,-0.20
2023-02-16T08:39:22.322Z,-0.10
2023-02-16T08:44:24.747Z,0.00
2023-02-16T08:49:27.970Z,0.00
2023-02-16T08:54:30.880Z,0.10
2023-02-16T08:59:32.648Z,0.20
2023-02-16T09:04:36.316Z,0.20
2023-02-16T09:09:37.980Z,0.20
2023-02-16T09:14:39.969Z,0.20
2023-02-16T09:19:43.103Z,0.20
2023-02-16T09:24:44.765Z,0.50
2023-02-16T09:29:46.475Z,0.40
2023-02-16T09:34:49.728Z,0.50
2023-02-16T09:39:51.451Z,0.50
2023-02-16T09:45:02.570Z,0.50
2023-02-16T09:50:13.468Z,0.50
2023-02-16T09:55:16.968Z,0.60
2023-02-16T10:00:29.359Z,0.80
2023-02-16T10:05:42.565Z,0.70
2023-02-16T10:10:50.426Z,0.80
2023-02-16T10:15:54.237Z,1.00
2023-02-16T10:21:00.828Z,1.10
2023-02-16T10:26:13.828Z,1.30
2023-02-16T10:31:23.452Z,1.40
2023-02-16T10:36:35.497Z,1.60
2023-02-16T10:41:40.310Z,1.70
2023-02-16T10:46:43.292Z,1.70
2023-02-16T10:51:50.395Z,1.80
2023-02-16T10:56:53.986Z,1.90
2023-02-16T11:01:58.456Z,2.10
2023-02-16T11:07:07.357Z,2.30
2023-02-16T11:12:22.997Z,2.20
2023-02-16T11:17:25.191Z,2.30
2023-02-16T11:22:34.781Z,2.60
2023-02-16T11:27:36.515Z,2.70
2023-02-16T11:32:38.252Z,2.70
2023-02-16T11:37:41.532Z,2.70
2023-02-16T11:42:47.267Z,2.60
2023-02-16T11:47:54.183Z,2.80
2023-02-16T11:53:12.613Z,2.70
2023-02-16T11:58:17.109Z,3.00
2023-02-16T12:03:47.845Z,3.10
2023-02-16T12:09:05.293Z,3.40
2023-02-16T12:14:26.984Z,3.40
2023-02-16T12:19:39.797Z,3.80
2023-02-16T12:24:52.905Z,4.40
2023-02-16T12:30:03.017Z,5.10
2023-02-16T12:35:22.572Z,5.90
2023-02-16T12:40:37.790Z,6.40
2023-02-16T12:45:40.877Z,6.50
2023-02-16T12:50:43.700Z,5.90
2023-02-16T12:55:50.463Z,5.80
2023-02-16T13:00:55.359Z,5.60
2023-02-16T13:06:06.078Z,5.90
2023-02-16T13:11:37.897Z,5.70
2023-02-16T13:16:44.941Z,5.60
2023-02-16T13:22:07.102Z,4.80
2023-02-16T13:27:22.515Z,5.00
2023-02-16T13:32:50.214Z,4.70
2023-02-16T13:38:01.894Z,4.70
2023-02-16T13:43:17.726Z,4.40
2023-02-16T13:48:24.312Z,4.10
2023-02-16T13:53:30.062Z,4.40
2023-02-16T13:58:33.371Z,4.60
2023-02-16T14:03:46.212Z,4.50
2023-02-16T14:09:17.791Z,4.20
2023-02-16T14:14:28.764Z,4.40
2023-02-16T14:20:12.534Z,4.30
2023-02-16T14:25:38.867Z,4.20
2023-02-16T14:30:49.410Z,4.20
2023-02-16T14:36:12.023Z,4.20
2023-02-16T14:41:24.947Z,4.30
2023-02-16T14:46:42.106Z,4.60
2023-02-16T14:51:59.340Z,4.70
2023-02-16T14:57:04.273Z,4.70
2023-02-16T15:02:20.684Z,4.50
2023-02-16T15:07:25.331Z,4.50
2023-02-16T15:12:30.464Z,4.50
2023-02-16T15:17:35.763Z,4.50
2023-02-16T15:22:38.945Z,4.50
2023-02-16T15:27:40.841Z,4.40
2023-02-16T15:32:50.299Z,4.30
2023-02-16T15:38:01.750Z,4.20
2023-02-16T15:43:14.047Z,4.00
2023-02-16T15:48:21.757Z,3.90
2023-02-16T15:54:01.639Z,3.80
2023-02-16T15:59:17.443Z,3.70
2023-02-16T16:04:21.555Z,3.60
2023-02-16T16:09:26.686Z,3.70
2023-02-16T16:14:32.999Z,3.60
2023-02-16T16:19:48.789Z,3.60
2023-02-16T16:24:50.566Z,3.50
2023-02-16T16:30:12.016Z,3.80
2023-02-16T16:35:20.991Z,3.90
2023-02-16T16:40:24.795Z,3.80
2023-02-16T16:45:37.165Z,3.70
2023-02-16T16:50:39.885Z,3.70
2023-02-16T16:55:41.720Z,3.70
2023-02-16T17:00:44.827Z,3.80
2023-02-16T17:05:46.589Z,3.70
2023-02-16T17:10:48.567Z,3.70
2023-02-16T17:15:56.582Z,3.60
2023-02-16T17:20:58.720Z,3.50
2023-02-16T17:26:00.463Z,3.40
2023-02-16T17:31:04.051Z,3.30
2023-02-16T17:36:07.804Z,3.10
2023-02-16T17:41:19.057Z,2.90
2023-02-16T17:46:23.420Z,2.60
2023-02-16T17:51:26.335Z,2.50
2023-02-16T17:56:28.107Z,2.50
2023-02-16T18:01:31.645Z,2.50
2023-02-16T18:06:33.411Z,2.50
2023-02-16T18:11:35.108Z,2.60
2023-02-16T18:16:38.323Z,2.70
2023-02-16T18:21:40.079Z,2.80
2023-02-16T18:26:41.850Z,2.90
2023-02-16T18:31:45.063Z,3.00
2023-02-16T18:36:46.967Z,2.90
2023-02-16T18:41:48.798Z,2.90
2023-02-16T18:46:51.834Z,2.90
2023-02-16T18:51:53.548Z,2.70
2023-02-16T18:56:55.235Z,2.50
2023-02-16T19:01:59.610Z,2.40
2023-02-16T19:07:01.337Z,2.40
2023-02-16T19:12:03.163Z,2.40
2023-02-16T19:17:06.234Z,2.50
2023-02-16T19:22:08.054Z,2.60
2023-02-16T19:27:09.869Z,2.70
2023-02-16T19:32:13.078Z,2.80
2023-02-16T19:37:14.886Z,2.80
2023-02-16T19:42:16.854Z,2.80
2023-02-16T19:47:19.900Z,2.70
2023-02-16T19:52:21.615Z,2.60
2023-02-16T19:57:23.411Z,2.70
2023-02-16T20:02:26.538Z,2.70
2023-02-16T20:07:28.218Z,2.80
2023-02-16T20:12:29.873Z,2.80
2023-02-16T20:17:32.946Z,2.90
2023-02-16T20:22:34.632Z,3.00
2023-02-16T20:27:36.796Z,3.10
2023-02-16T20:32:47.113Z,3.10
2023-02-16T20:37:48.777Z,3.10
2023-02-16T20:42:50.526Z,3.20
2023-02-16T20:47:53.836Z,3.20
2023-02-16T20:52:55.681Z,3.20
2023-02-16T20:57:57.634Z,3.20
2023-02-16T21:03:00.714Z,3.30
2023-02-16T21:08:02.468Z,3.40
2023-02-16T21:13:04.198Z,3.50
2023-02-16T21:18:07.247Z,3.50
2023-02-16T21:23:08.946Z,3.50
2023-02-16T21:28:10.872Z,3.60
2023-02-16T21:33:14.079Z,3.50
2023-02-16T21:38:15.927Z,3.40
2023-02-16T21:43:17.731Z,3.50
2023-02-16T21:48:20.853Z,3.50
2023-02-16T21:53:22.573Z,3.80
2023-02-16T21:58:25.179Z,4.20
2023-02-16T22:03:28.293Z,4.40
2023-02-16T22:08:30.131Z,4.60
2023-02-16T22:13:31.872Z,4.70
2023-02-16T22:18:35.012Z,4.60
2023-02-16T22:23:37.643Z,4.60
2023-02-16T22:28:39.416Z,4.50
2023-02-16T22:33:42.718Z,4.40
2023-02-16T22:38:44.851Z,4.20
2023-02-16T22:43:47.032Z,4.00
2023-02-16T22:48:50.425Z,3.90
2023-02-16T22:53:52.193Z,3.90
2023-02-16T22:58:57.178Z,4.00
2023-02-16T23:04:01.834Z,4.00
2023-02-16T23:09:06.722Z,4.00
2023-02-16T23:14:08.614Z,4.00
2023-02-16T23:19:13.653Z,4.00
2023-02-16T23:24:18.592Z,4.00
2023-02-16T23:29:20.167Z,4.10
2023-02-16T23:34:23.266Z,4.00
2023-02-16T23:39:24.965Z,3.90
2023-02-16T23:44:26.659Z,4.00
2023-02-16T23:49:30.022Z,4.00
2023-02-16T23:54:31.833Z,4.00
2023-02-16T23:59:33.952Z,4.00
